Ro Fjord — LFEI — position and weather

sailwx.info

Track history (hours):
 
Tides and Currents Weather Stations Pressure Air Temp Water Temp Dewpoint Dewpoint Depression Visibility Wind Speed Wind Dir Waves Ship Positions

Ro Fjord

Last reported at 2015-May-15 23:21 UTC. Time now 2015-May-28 10:05 UTC.
Position N 59°18' E 005°20'.
Warning: this ship's position is 12 days out of date.

Length 72 m; draft 6.4 m.

Type: Ship. MMSI: 257430000.

Date/timePositionNaut miles runAvg speedWind from/ knotsBaromVisibWave heightAir tempDewpointWater temp
2015-May-15 23:21N 59°18' E 005°20'810.0
2015-May-15 22:33N 59°10' E 005°21'9 8.9
2015-May-15 21:31N 59°09' E 005°39'8 8.7
2015-May-15 20:33N 59°07' E 005°55'1 0.4
2015-May-15 18:33N 59°07' E 005°56'0 0.0
2015-May-15 17:33N 59°07' E 005°56'7 7.2
2015-May-15 16:33N 59°08' E 005°42'1110.8
2015-May-15 15:33N 59°09' E 005°21'2017.7
2015-May-15 14:24N 59°29' E 005°12'1 1.7
2015-May-15 13:33N 59°27' E 005°13'  
2015-May-09 12:32N 59°29' E 005°13'11 9.3
2015-May-09 11:23N 59°19' E 005°20'810.0
2015-May-09 10:33N 59°11' E 005°22'9 8.8
2015-May-09 09:33N 59°09' E 005°39'9 9.0
2015-May-09 08:33N 59°07' E 005°55'1 0.5
2015-May-09 07:33N 59°07' E 005°56'0 0.0
2015-May-09 06:33N 59°07' E 005°56'0 0.2
2015-May-09 05:34N 59°07' E 005°56'1 1.4
2015-May-09 04:33N 59°06' E 005°54'5 5.1
2015-May-09 03:33N 59°08' E 005°45'8 7.6
2015-May-09 02:33N 59°09' E 005°30'6 6.2
2015-May-09 01:33N 59°12' E 005°20'10 9.5
2015-May-09 00:33N 59°22' E 005°18'  
Track history (hours):
 
Tides and Currents Weather Stations Pressure Air Temp Water Temp Dewpoint Dewpoint Depression Visibility Wind Speed Wind Dir Waves Ship Positions

Ro Fjord

Last reported at 2015-May-15 23:21 UTC. Time now 2015-May-28 10:05 UTC.
Position N 59°18' E 005°20'.
Warning: this ship's position is 12 days out of date.

Length 72 m; draft 6.4 m.

Type: Ship. MMSI: 257430000.

Date/timePositionNaut miles runAvg speedWind from/ knotsBaromVisibWave heightAir tempDewpointWater temp
2015-May-15 23:21N 59°18' E 005°20'810.0
2015-May-15 22:33N 59°10' E 005°21'9 8.9
2015-May-15 21:31N 59°09' E 005°39'8 8.7
2015-May-15 20:33N 59°07' E 005°55'1 0.4
2015-May-15 18:33N 59°07' E 005°56'0 0.0
2015-May-15 17:33N 59°07' E 005°56'7 7.2
2015-May-15 16:33N 59°08' E 005°42'1110.8
2015-May-15 15:33N 59°09' E 005°21'2017.7
2015-May-15 14:24N 59°29' E 005°12'1 1.7
2015-May-15 13:33N 59°27' E 005°13'  
2015-May-09 12:32N 59°29' E 005°13'11 9.3
2015-May-09 11:23N 59°19' E 005°20'810.0
2015-May-09 10:33N 59°11' E 005°22'9 8.8
2015-May-09 09:33N 59°09' E 005°39'9 9.0
2015-May-09 08:33N 59°07' E 005°55'1 0.5
2015-May-09 07:33N 59°07' E 005°56'0 0.0
2015-May-09 06:33N 59°07' E 005°56'0 0.2
2015-May-09 05:34N 59°07' E 005°56'1 1.4
2015-May-09 04:33N 59°06' E 005°54'5 5.1
2015-May-09 03:33N 59°08' E 005°45'8 7.6
2015-May-09 02:33N 59°09' E 005°30'6 6.2
2015-May-09 01:33N 59°12' E 005°20'10 9.5
2015-May-09 00:33N 59°22' E 005°18'  

Dump ship's entire track history